Latest Weather Observations for Dunalley

IDT60801

Issued at 11:31 pm EDT Friday 15 November 2019 (issued every 10 minutes, with the page automatically refreshed every 10 minutes)

About weather observations | Map of weather stations | Latest weather observations for TAS | Other Formats
Station Details ID: 094254 Name: DUNALLEY (STROUD POINT) Lat: -42.90 Lon: 147.79 Height: 12.43 m
Data from the previous 72 hours. | See also: Recent months at Dunalley
Date/Time
EDT
Temp
°C
App
Temp
°C
Dew
Point
°C
Rel
Hum
%
Delta-T
°C
Wind Press
QNH
hPa
Press
MSL
hPa
Rain since
9am
mm
Dir  Spd
km/h
Gust
km/h
Spd
kts
Gust
kts
15/11:30pm 8.8 3.9 2.2 63 2.8 WNW 17 26 9 14 1005.0 1005.0 0.4
15/11:00pm 8.7 4.6 2.1 63 2.8 WNW 13 22 7 12 1005.0 1005.0 0.4
15/10:30pm 9.8 2.0 3.1 63 2.9 W 33 43 18 23 1004.3 1004.3 0.4
15/10:00pm 9.8 1.6 2.6 61 3.1 W 35 44 19 24 1003.8 1003.8 0.4
15/09:30pm 9.7 0.3 2.6 61 3.0 W 41 52 22 28 1003.2 1003.2 0.4
15/09:20pm 9.5 1.2 2.4 61 3.0 WNW 35 54 19 29 1003.0 1003.0 0.4
15/09:00pm 9.6 1.0 2.5 61 3.0 W 37 50 20 27 1002.7 1002.7 0.4
15/08:30pm 9.9 -0.9 3.9 66 2.6 W 50 63 27 34 1002.4 1002.4 0.4
15/08:00pm 11.0 -0.7 3.1 58 3.5 WSW 54 63 29 34 1001.8 1001.8 0.4
15/07:30pm 11.6 1.3 2.9 55 3.8 WSW 46 59 25 32 1002.0 1002.0 0.4
15/07:00pm 11.9 0.6 3.2 55 3.9 WSW 52 67 28 36 1001.2 1001.2 0.4
15/06:30pm 11.9 3.2 2.1 51 4.2 W 37 50 20 27 1001.0 1001.0 0.4
15/06:00pm 11.9 4.0 1.3 48 4.5 WNW 32 46 17 25 1000.8 1000.8 0.4
15/05:30pm 12.1 5.3 3.3 55 3.9 WSW 28 35 15 19 1000.7 1000.7 0.4
15/05:00pm 12.2 3.7 2.9 53 4.1 WSW 37 46 20 25 1000.3 1000.3 0.4
15/04:30pm 13.2 5.4 1.5 45 5.0 W 32 44 17 24 1000.1 1000.1 0.4
15/04:00pm 12.8 3.4 2.4 49 4.6 W 41 50 22 27 999.6 999.6 0.4
15/03:39pm 13.1 5.5 2.6 49 4.6 W 32 54 17 29 999.2 999.2 0.4
15/03:30pm 13.3 7.6 3.1 50 4.5 W 22 32 12 17 999.4 999.4 0.4
15/03:15pm 13.2 7.3 3.8 53 4.2 W 24 33 13 18 999.7 999.7 0.4
15/03:00pm 13.2 4.6 4.9 57 3.9 WSW 39 52 21 28 999.4 999.4 0.4
15/02:54pm 12.4 2.6 5.1 61 3.4 WSW 46 59 25 32 999.5 999.5 0.4
15/02:30pm 11.5 -0.7 5.4 66 2.8 WSW 59 74 32 40 998.9 998.9 0.4
15/02:21pm 11.5 1.4 5.6 67 2.7 WSW 48 72 26 39 998.7 998.7 0.2
15/02:00pm 13.2 3.3 3.0 50 4.6 WSW 44 52 24 28 998.3 998.3 0.0
15/01:30pm 13.1 3.7 4.5 56 3.9 SW 43 54 23 29 998.4 998.4 0.0
15/01:12pm 12.9 3.9 4.3 56 3.9 W 41 59 22 32 997.9 997.9 0.0
15/01:00pm 14.8 4.4 2.0 42 5.7 W 46 59 25 32 997.9 997.9 0.0
15/12:42pm 15.3 6.0 3.1 44 5.5 W 41 59 22 32 997.9 997.9 0.0
15/12:30pm 14.8 7.9 6.6 58 4.0 WSW 32 39 17 21 998.3 998.3 0.0
15/12:00pm 13.1 3.7 4.3 55 4.0 W 43 61 23 33 998.3 998.3 0.0
15/11:59am 13.8 4.3 3.9 51 4.5 W 43 61 23 33 998.2 998.2 0.0
15/11:30am 15.0 5.7 2.9 44 5.4 W 41 52 22 28 998.0 998.0 0.0
15/11:00am 14.1 5.2 0.7 40 5.7 WNW 37 50 20 27 998.1 998.1 0.0
15/10:30am 14.1 6.1 0.4 39 5.8 W 32 50 17 27 998.3 998.3 0.0
15/10:03am 14.2 4.9 0.8 40 5.7 W 39 57 21 31 998.4 998.4 0.0
15/10:00am 14.3 4.7 1.2 41 5.7 W 41 57 22 31 998.5 998.5 0.0
15/09:30am 14.1 3.9 0.0 38 5.9 W 43 54 23 29 998.6 998.6 0.0
15/09:00am 13.3 4.9 3.9 53 4.3 W 37 46 20 25 998.6 998.6 0.0
15/08:30am 12.8 3.8 2.6 50 4.5 W 39 54 21 29 998.2 998.2 0.0
15/08:00am 13.4 5.4 1.7 45 5.1 WNW 33 56 18 30 998.0 998.0 0.0
15/07:48am 13.2 4.8 1.5 45 5.0 WNW 35 54 19 29 998.1 998.1 0.0
15/07:30am 12.9 3.2 2.7 50 4.5 W 43 54 23 29 997.9 997.9 0.0
15/07:00am 12.6 0.8 2.5 50 4.4 W 54 69 29 37 997.3 997.3 0.0
15/06:38am 12.0 2.1 2.7 53 4.1 W 44 63 24 34 997.0 997.0 0.0
15/06:30am 12.1 1.8 2.6 52 4.1 W 46 63 25 34 996.9 996.9 0.0
15/06:20am 12.0 4.5 3.3 55 3.8 W 32 52 17 28 997.1 997.1 0.0
15/06:00am 12.0 3.4 2.7 53 4.1 WNW 37 50 20 27 996.9 996.9 0.0
15/05:54am 11.9 5.0 2.4 52 4.1 WNW 28 50 15 27 996.9 996.9 0.0
15/05:30am 11.8 6.6 2.5 53 4.0 WNW 19 28 10 15 997.2 997.2 0.0
15/05:00am 11.8 5.2 2.3 52 4.1 WNW 26 37 14 20 996.5 996.5 0.0
15/04:30am 12.2 4.6 2.6 52 4.2 WNW 32 44 17 24 996.4 996.4 0.0
15/04:00am 12.2 4.9 2.6 52 4.2 WNW 30 41 16 22 996.4 996.4 0.0
15/03:30am 12.1 5.2 2.6 52 4.1 WNW 28 39 15 21 996.5 996.5 0.0
15/03:00am 12.2 5.3 2.4 51 4.3 NW 28 35 15 19 996.4 996.4 0.0
15/02:30am 12.9 5.4 3.6 53 4.2 W 32 43 17 23 996.2 996.2 0.0
15/02:12am 13.1 6.2 4.8 57 3.8 W 30 48 16 26 996.4 996.4 0.0
15/02:09am 12.8 6.1 5.5 61 3.4 W 30 39 16 21 996.5 996.5 0.0
15/02:00am 13.0 3.9 5.9 62 3.4 WSW 43 52 23 28 996.4 996.4 0.0
15/01:30am 13.4 7.3 6.5 63 3.3 W 28 48 15 26 995.8 995.8 0.0
15/01:00am 13.5 6.2 4.4 54 4.2 WNW 32 46 17 25 995.9 995.9 0.0
15/12:30am 13.4 5.5 4.6 55 4.0 WNW 35 48 19 26 995.7 995.7 0.0
15/12:00am 13.4 5.1 4.3 54 4.2 WNW 37 54 20 29 995.9 995.9 0.0
 
Date/Time
EDT
Temp
°C
App
Temp
°C
Dew
Point
°C
Rel
Hum
%
Delta-T
°C
Wind Press
QNH
hPa
Press
MSL
hPa
Rain since
9am
mm
Dir  Spd
km/h
Gust
km/h
Spd
kts
Gust
kts
14/11:30pm 13.6 5.3 4.2 53 4.3 WNW 37 50 20 27 996.2 996.2 0.0
14/11:00pm 13.6 4.9 4.2 53 4.3 WNW 39 50 21 27 996.5 996.5 0.0
14/10:30pm 13.9 6.0 4.2 52 4.4 WNW 35 44 19 24 997.0 997.0 0.0
14/10:05pm 14.2 6.3 4.2 51 4.6 WNW 35 54 19 29 997.2 997.2 0.0
14/10:00pm 14.1 6.2 4.1 51 4.6 WNW 35 48 19 26 997.3 997.3 0.0
14/09:30pm 14.1 7.9 4.4 52 4.5 WNW 26 37 14 20 997.2 997.2 0.0
14/09:00pm 14.6 8.5 4.6 51 4.7 WNW 26 39 14 21 997.5 997.5 0.0
14/08:30pm 14.8 9.1 5.1 52 4.6 WNW 24 33 13 18 997.4 997.4 0.0
14/08:00pm 15.1 7.8 4.5 49 5.0 WNW 32 43 17 23 997.2 997.2 0.0
14/07:42pm 15.4 6.8 4.5 48 5.1 WNW 39 57 21 31 997.2 997.2 0.0
14/07:30pm 16.0 6.6 4.4 46 5.4 WNW 43 56 23 30 997.2 997.2 0.0
14/07:00pm 15.8 5.8 4.2 46 5.4 WNW 46 59 25 32 996.7 996.7 0.0
14/06:30pm 16.2 6.2 4.3 45 5.6 WNW 46 65 25 35 996.9 996.9 0.0
14/06:02pm 17.5 8.5 4.5 42 6.2 WNW 41 59 22 32 997.0 997.0 0.0
14/06:00pm 17.5 8.5 4.8 43 6.1 WNW 41 57 22 31 997.1 997.1 0.0
14/05:48pm 18.1 10.9 5.0 42 6.3 WNW 32 52 17 28 997.1 997.1 0.0
14/05:30pm 17.9 10.4 6.4 47 5.7 W 35 46 19 25 997.1 997.1 0.0
14/05:00pm 16.9 6.3 6.7 51 5.1 W 52 63 28 34 997.5 997.5 0.0
14/04:30pm 17.3 8.5 5.6 46 5.7 WSW 41 50 22 27 997.4 997.4 0.0
14/04:00pm 17.6 5.8 4.9 43 6.1 W 56 67 30 36 997.4 997.4 0.0
14/03:38pm 17.1 5.4 5.1 45 5.7 W 56 74 30 40 997.5 997.5 0.0
14/03:30pm 18.3 6.7 5.8 44 6.1 W 56 69 30 37 997.7 997.7 0.0
14/03:00pm 18.4 7.5 5.6 43 6.3 W 52 70 28 38 997.8 997.8 0.0
14/02:39pm 18.8 7.0 4.9 40 6.7 W 56 74 30 40 997.8 997.8 0.0
14/02:30pm 17.7 5.7 4.6 42 6.2 W 57 70 31 38 997.8 997.8 0.0
14/02:00pm 17.7 6.4 5.3 44 6.0 W 54 65 29 35 998.1 998.1 0.0
14/01:30pm 17.7 5.9 5.6 45 5.9 W 57 70 31 38 997.9 997.9 0.0
14/01:00pm 18.6 8.2 6.1 44 6.2 W 50 61 27 33 998.1 998.1 0.0
14/12:38pm 18.5 8.2 6.7 46 5.9 W 50 69 27 37 998.3 998.3 0.0
14/12:30pm 17.9 7.5 6.1 46 5.8 W 50 63 27 34 998.3 998.3 0.0
14/12:00pm 18.8 9.0 6.9 46 6.0 W 48 63 26 34 998.4 998.4 0.0
14/11:30am 18.6 8.8 7.1 47 5.8 W 48 61 26 33 998.9 998.9 0.0
14/11:00am 18.5 9.5 7.3 48 5.7 W 44 57 24 31 998.9 998.9 0.0
14/10:30am 17.4 7.9 6.9 50 5.2 W 46 59 25 32 999.3 999.3 0.0
14/10:00am 17.1 6.8 6.3 49 5.3 W 50 59 27 32 999.4 999.4 0.0
14/09:58am 17.2 7.2 6.1 48 5.4 W 48 59 26 32 999.4 999.4 0.0
14/09:30am 17.0 10.2 7.1 52 4.9 W 32 41 17 22 999.9 999.9 0.0
14/09:00am 17.1 10.4 7.5 53 4.9 W 32 43 17 23 1000.4 1000.4 2.8
14/08:30am 15.5 10.2 7.0 57 4.2 WNW 24 37 13 20 1000.8 1000.8 2.8
14/08:00am 14.5 8.1 6.8 60 3.8 WNW 30 39 16 21 1000.9 1000.9 2.8
14/07:30am 13.6 8.7 6.9 64 3.2 WNW 22 35 12 19 1000.9 1000.9 2.8
14/07:00am 13.1 7.7 6.5 64 3.2 WNW 24 37 13 20 1001.0 1001.0 2.8
14/06:30am 12.6 8.8 6.0 64 3.1 NW 15 30 8 16 1000.8 1000.8 2.8
14/06:00am 12.3 8.1 5.5 63 3.2 NW 17 24 9 13 1000.8 1000.8 2.8
14/05:30am 12.2 7.9 5.1 62 3.3 NNW 17 26 9 14 1000.8 1000.8 2.8
14/05:00am 11.7 7.7 4.9 63 3.1 NNW 15 24 8 13 1001.1 1001.1 2.8
14/04:30am 11.5 7.1 4.5 62 3.2 NNW 17 28 9 15 1001.3 1001.3 2.8
14/04:00am 11.5 7.0 4.3 61 3.3 NW 17 24 9 13 1001.8 1001.8 2.8
14/03:30am 11.3 5.8 3.8 60 3.3 WNW 22 32 12 17 1002.2 1002.2 2.8
14/03:00am 11.2 6.1 4.0 61 3.2 WNW 20 32 11 17 1002.3 1002.3 2.8
14/02:30am 10.9 5.9 3.5 60 3.3 WNW 19 26 10 14 1002.8 1002.8 2.8
14/02:00am 10.6 5.6 3.4 61 3.2 WNW 19 28 10 15 1003.1 1003.1 2.8
14/01:30am 10.6 5.8 2.7 58 3.4 WNW 17 28 9 15 1003.5 1003.5 2.8
14/01:00am 10.6 6.4 1.9 55 3.7 N 13 20 7 11 1003.6 1003.6 2.8
14/12:43am 11.0 4.6 3.3 59 3.4 W 26 35 14 19 1003.7 1003.7 2.8
14/12:30am 11.6 3.1 3.1 56 3.7 WSW 37 46 20 25 1003.1 1003.1 2.8
14/12:00am 11.5 2.5 4.7 63 3.1 WSW 41 48 22 26 1002.9 1002.9 2.8
 
Date/Time
EDT
Temp
°C
App
Temp
°C
Dew
Point
°C
Rel
Hum
%
Delta-T
°C
Wind Press
QNH
hPa
Press
MSL
hPa
Rain since
9am
mm
Dir  Spd
km/h
Gust
km/h
Spd
kts
Gust
kts
13/11:30pm 11.3 2.8 5.2 66 2.8 WSW 39 44 21 24 1003.8 1003.8 2.8
13/11:00pm 11.0 2.8 4.9 66 2.8 WSW 37 44 20 24 1004.0 1004.0 2.8
13/10:30pm 11.2 2.7 5.1 66 2.8 WSW 39 46 21 25 1003.7 1003.7 2.8
13/10:00pm 11.6 0.9 4.6 62 3.2 WSW 50 61 27 33 1003.5 1003.5 2.8
13/09:30pm 11.8 0.5 3.3 56 3.7 WSW 52 67 28 36 1003.4 1003.4 2.8
13/09:00pm 11.7 1.6 3.7 58 3.6 WSW 46 56 25 30 1003.2 1003.2 2.8
13/08:30pm 11.3 1.7 4.3 62 3.1 W 44 54 24 29 1003.2 1003.2 2.8
13/08:00pm 11.5 0.0 4.5 62 3.2 W 54 69 29 37 1002.7 1002.7 2.8
13/07:30pm 11.9 0.3 3.9 58 3.6 W 54 61 29 33 1002.1 1002.1 2.8
13/07:00pm 12.1 1.8 4.8 61 3.4 W 48 57 26 31 1001.6 1001.6 2.8
13/06:30pm 12.3 0.0 5.2 62 3.3 W 59 80 32 43 1000.8 1000.8 2.8
13/06:20pm 12.1 -1.1 4.3 59 3.5 W 63 83 34 45 1000.4 1000.4 2.8
13/06:12pm 12.7 1.7 4.9 59 3.6 WSW 52 72 28 39 1000.2 1000.2 2.8
13/06:08pm 12.8 3.2 3.5 53 4.2 WSW 43 63 23 34 1000.2 1000.2 2.8
13/06:00pm 12.7 4.2 5.1 60 3.5 WSW 39 52 21 28 1000.1 1000.1 2.8
13/05:41pm 13.3 4.4 5.2 58 3.8 SW 41 59 22 32 999.7 999.7 2.8
13/05:30pm 13.1 3.3 5.5 60 3.6 SW 46 54 25 29 999.7 999.7 2.8
13/05:00pm 12.5 3.8 5.9 64 3.1 SW 41 46 22 25 999.1 999.1 2.8
13/04:30pm 12.3 2.7 6.1 66 2.9 SW 46 67 25 36 998.6 998.6 2.8
13/04:25pm 13.0 1.4 5.9 62 3.3 WSW 56 74 30 40 998.5 998.5 2.8
13/04:00pm 13.6 1.1 4.2 53 4.3 W 59 72 32 39 997.9 997.9 2.8
13/03:53pm 13.8 3.2 5.2 56 4.0 WSW 50 67 27 36 997.9 997.9 2.8
13/03:30pm 12.8 2.7 5.5 61 3.4 SW 48 59 26 32 997.6 997.6 2.8
13/03:02pm 13.2 0.3 6.1 62 3.4 WSW 63 87 34 47 997.6 997.6 2.8
13/03:00pm 13.7 -0.7 4.3 53 4.3 WSW 69 87 37 47 997.3 997.3 2.8
13/02:49pm 14.2 2.5 5.3 55 4.2 WSW 56 76 30 41 997.1 997.1 2.8
13/02:30pm 14.2 2.8 6.8 61 3.6 WSW 56 74 30 40 996.8 996.8 2.8
13/02:00pm 13.5 3.8 9.2 75 2.2 WSW 50 61 27 33 996.7 996.7 2.8
13/01:30pm 10.4 -2.0 6.7 78 1.7 WSW 61 85 33 46 996.0 996.0 2.4
13/01:22pm 11.2 1.4 7.1 76 2.0 WSW 48 85 26 46 996.1 996.1 1.4
13/01:20pm 12.4 3.7 7.9 74 2.2 WSW 43 69 23 37 996.3 996.3 1.4
13/01:00pm 14.0 7.1 8.8 71 2.6 W 35 48 19 26 996.0 996.0 1.2
13/12:30pm 11.9 3.5 7.4 74 2.2 W 41 54 22 29 996.3 996.3 1.0
13/12:00pm 12.3 3.3 7.4 72 2.4 W 44 57 24 31 995.6 995.6 0.8
13/11:43am 12.9 4.3 6.3 64 3.1 W 41 59 22 32 995.8 995.8 0.0
13/11:30am 14.6 5.2 4.6 51 4.6 WNW 43 57 23 31 995.6 995.6 0.0
13/11:07am 14.5 4.9 4.2 50 4.7 WNW 44 65 24 35 995.7 995.7 0.0
13/11:00am 14.2 4.7 3.7 49 4.8 WNW 43 59 23 32 995.9 995.9 0.0
13/10:34am 13.4 6.6 3.2 50 4.6 NW 28 50 15 27 996.6 996.6 0.0
13/10:30am 13.4 7.4 3.2 50 4.6 NW 24 43 13 23 996.8 996.8 0.0
13/10:18am 13.6 4.7 3.1 49 4.7 WNW 39 61 21 33 997.1 997.1 0.0
13/10:08am 13.4 3.5 2.9 49 4.7 WNW 44 69 24 37 996.9 996.9 0.0
13/10:00am 12.6 2.9 2.7 51 4.4 WNW 43 59 23 32 997.0 997.0 0.0
13/09:30am 12.5 3.5 2.7 51 4.3 WNW 39 54 21 29 998.0 998.0 0.0
13/09:00am 11.2 3.3 2.2 54 3.9 WNW 33 44 18 24 998.9 998.9 1.4
13/08:30am 12.1 4.3 2.6 52 4.1 WNW 33 48 18 26 999.3 999.3 1.4
13/08:00am 10.5 1.1 2.1 56 3.6 W 41 56 22 30 999.5 999.5 1.4
13/07:40am 10.0 2.1 2.1 58 3.3 W 33 52 18 28 999.7 999.7 1.4
13/07:30am 9.8 3.2 2.2 59 3.2 W 26 35 14 19 1000.0 1000.0 1.4
13/07:00am 9.3 3.5 2.2 61 3.0 W 22 26 12 14 1000.3 1000.3 1.4
13/06:30am 8.6 1.6 2.0 63 2.7 W 28 33 15 18 1000.6 1000.6 1.4
13/06:00am 8.2 3.5 1.1 61 2.9 WNW 15 20 8 11 1000.7 1000.7 1.4
13/05:30am 8.1 3.1 1.5 63 2.7 WNW 17 24 9 13 1000.6 1000.6 1.4
13/05:00am 7.8 2.1 0.8 61 2.8 W 20 28 11 15 1000.7 1000.7 1.4
13/04:30am 8.3 -1.5 2.3 66 2.5 WSW 43 50 23 27 1000.4 1000.4 1.4
13/04:00am 8.3 -1.1 2.5 67 2.4 WSW 41 48 22 26 1000.7 1000.7 1.4
13/03:31am 8.7 1.8 2.5 65 2.6 W 28 48 15 26 1000.8 1000.8 1.4
13/03:30am 8.6 2.1 2.4 65 2.6 W 26 43 14 23 1000.8 1000.8 1.4
13/03:00am 8.6 0.4 2.8 67 2.5 WSW 35 43 19 23 1000.7 1000.7 1.4
13/02:30am 8.4 -1.5 2.6 67 2.4 WSW 44 54 24 29 1000.5 1000.5 1.4
13/02:00am 8.4 0.2 2.6 67 2.5 W 35 46 19 25 1000.7 1000.7 1.4
13/01:30am 8.5 0.3 2.5 66 2.5 W 35 46 19 25 1000.7 1000.7 1.4
13/01:00am 8.0 2.1 2.0 66 2.5 WNW 22 32 12 17 1001.0 1001.0 1.4
13/12:30am 8.6 1.7 2.4 65 2.6 W 28 41 15 22 1000.9 1000.9 1.4
13/12:00am 8.1 2.6 2.1 66 2.5 WNW 20 28 11 15 1001.1 1001.1 1.4

Other formats

Comma delimited format used in spreadsheet applications
http://www.bom.gov.au/fwo/IDT60801/IDT60801.94951.axf

JavaScript Object Notation format (JSON) in row-major order
http://www.bom.gov.au/fwo/IDT60801/IDT60801.94951.json

Data quality

Most of these data are generated automatically and are frequently updated. Quality checks on data are not normally performed. It is possible for incorrect values to appear. Refer to information at About Latest Weather Observations and please check the disclaimer before using these data.